createdAt,value
2022-12-16T00:02:50.462Z,15.80
2022-12-16T00:07:55.394Z,17.40
2022-12-16T00:12:58.106Z,17.00
2022-12-16T00:18:00.809Z,17.00
2022-12-16T00:23:04.926Z,17.00
2022-12-16T00:28:07.683Z,14.20
2022-12-16T00:33:11.488Z,15.40
2022-12-16T00:38:16.281Z,16.00
2022-12-16T00:43:19.652Z,17.00
2022-12-16T00:48:23.943Z,14.40
2022-12-16T00:53:28.331Z,16.00
2022-12-16T00:58:31.329Z,15.25
2022-12-16T01:03:34.482Z,14.40
2022-12-16T01:08:39.194Z,13.40
2022-12-16T01:13:41.986Z,15.40
2022-12-16T01:18:44.862Z,14.20
2022-12-16T01:23:49.784Z,16.80
2022-12-16T01:28:53.288Z,14.20
2022-12-16T01:33:58.003Z,15.00
2022-12-16T01:39:02.142Z,14.00
2022-12-16T01:44:19.138Z,15.00
2022-12-16T01:49:27.098Z,15.00
2022-12-16T01:54:36.925Z,15.00
2022-12-16T01:59:41.834Z,13.00
2022-12-16T02:05:06.122Z,14.00
2022-12-16T02:10:11.850Z,14.80
2022-12-16T02:15:25.491Z,14.25
2022-12-16T02:21:04.622Z,13.50
2022-12-16T02:26:27.872Z,13.40
2022-12-16T02:31:36.925Z,13.00
2022-12-16T02:36:55.858Z,13.00
2022-12-16T02:42:03.959Z,15.00
2022-12-16T02:47:08.296Z,13.00
2022-12-16T02:52:11.302Z,10.50
2022-12-16T02:57:28.604Z,13.50
2022-12-16T03:02:41.881Z,13.00
2022-12-16T03:07:46.712Z,12.25
2022-12-16T03:12:49.674Z,12.50
2022-12-16T03:17:56.485Z,13.00
2022-12-16T03:23:03.865Z,12.00
2022-12-16T03:28:16.966Z,10.50
2022-12-16T03:33:29.524Z,14.60
2022-12-16T03:38:34.663Z,12.00
2022-12-16T03:43:38.747Z,12.75
2022-12-16T03:48:49.176Z,15.00
2022-12-16T03:53:51.935Z,11.75
2022-12-16T03:58:54.645Z,13.00
2022-12-16T04:03:59.135Z,12.50
2022-12-16T04:09:02.025Z,12.50
2022-12-16T04:14:22.407Z,10.75
2022-12-16T04:19:49.023Z,11.00
2022-12-16T04:24:51.970Z,11.00
2022-12-16T04:30:15.490Z,12.00
2022-12-16T04:35:36.929Z,12.00
2022-12-16T04:40:57.448Z,11.25
2022-12-16T04:46:18.151Z,11.50
2022-12-16T04:51:40.009Z,10.75
2022-12-16T04:57:00.374Z,12.50
2022-12-16T05:02:20.960Z,10.00
2022-12-16T05:07:48.164Z,11.75
2022-12-16T05:13:08.301Z,11.00
2022-12-16T05:18:29.330Z,10.50
2022-12-16T05:23:50.926Z,11.50
2022-12-16T05:29:11.357Z,11.50
2022-12-16T05:34:31.842Z,9.75
2022-12-16T05:39:53.404Z,9.75
2022-12-16T05:45:13.595Z,11.75
2022-12-16T05:50:34.173Z,9.00
2022-12-16T05:56:02.959Z,10.25
2022-12-16T06:01:23.733Z,9.25
2022-12-16T06:06:44.257Z,9.50
2022-12-16T06:12:06.246Z,9.75
2022-12-16T06:17:26.238Z,10.00
2022-12-16T06:22:46.437Z,10.00
2022-12-16T06:28:10.827Z,10.00
2022-12-16T06:33:31.248Z,9.75
2022-12-16T06:38:51.539Z,10.50
2022-12-16T06:44:13.308Z,9.25
2022-12-16T06:49:33.816Z,10.00
2022-12-16T06:54:53.886Z,9.00
2022-12-16T07:00:15.493Z,9.00
2022-12-16T07:05:35.705Z,9.00
2022-12-16T07:11:02.303Z,7.75
2022-12-16T07:16:30.620Z,9.50
2022-12-16T07:21:51.077Z,9.50
2022-12-16T07:27:11.416Z,9.75
2022-12-16T07:32:33.166Z,7.50
2022-12-16T07:37:55.124Z,6.75
2022-12-16T07:43:15.207Z,7.75
2022-12-16T07:48:37.250Z,8.00
2022-12-16T07:53:57.687Z,8.50
2022-12-16T07:59:17.966Z,29.00
2022-12-16T08:04:39.770Z,30.20
2022-12-16T08:09:56.417Z,26.00
2022-12-16T08:15:16.834Z,25.20
2022-12-16T08:20:38.264Z,22.60
2022-12-16T08:25:58.873Z,20.80
2022-12-16T08:31:19.651Z,20.20
2022-12-16T08:36:41.491Z,19.00
2022-12-16T08:42:01.883Z,18.25
2022-12-16T08:47:22.360Z,15.60
2022-12-16T08:52:40.631Z,15.60
2022-12-16T08:58:00.699Z,15.33
2022-12-16T09:03:21.612Z,14.00
2022-12-16T09:08:43.724Z,12.75
2022-12-16T09:14:04.128Z,14.00
2022-12-16T09:19:24.260Z,13.50
2022-12-16T09:24:46.175Z,12.75
2022-12-16T09:30:06.210Z,14.00
2022-12-16T09:35:26.945Z,12.00
2022-12-16T09:40:48.625Z,12.20
2022-12-16T09:46:21.857Z,13.00
2022-12-16T09:51:43.731Z,10.25
2022-12-16T09:57:07.258Z,11.00
2022-12-16T10:02:30.541Z,12.00
2022-12-16T10:07:57.390Z,13.75
2022-12-16T10:13:26.571Z,14.25
2022-12-16T10:19:00.364Z,14.00
2022-12-16T10:24:36.992Z,14.00
2022-12-16T10:30:03.352Z,16.40
2022-12-16T10:35:38.589Z,17.00
2022-12-16T10:40:59.005Z,16.20
2022-12-16T10:46:29.870Z,16.40
2022-12-16T10:51:50.294Z,18.00
2022-12-16T10:57:18.798Z,16.20
2022-12-16T11:02:43.219Z,15.60
2022-12-16T11:08:11.978Z,15.80
2022-12-16T11:13:38.914Z,21.40
2022-12-16T11:19:08.124Z,18.80
2022-12-16T11:24:34.603Z,17.20
2022-12-16T11:30:08.633Z,16.60
2022-12-16T11:35:36.588Z,16.40
2022-12-16T11:40:58.182Z,16.00
2022-12-16T11:46:17.907Z,16.80
2022-12-16T11:51:41.332Z,14.00
2022-12-16T11:57:03.571Z,14.00
2022-12-16T12:02:34.091Z,14.00
2022-12-16T12:08:06.734Z,14.80
2022-12-16T12:13:45.919Z,14.60
2022-12-16T12:19:16.715Z,15.00
2022-12-16T12:24:56.330Z,13.80
2022-12-16T12:30:23.482Z,14.25
2022-12-16T12:36:00.533Z,14.25
2022-12-16T12:41:30.286Z,13.00
2022-12-16T12:46:58.222Z,13.00
2022-12-16T12:52:27.198Z,12.50
2022-12-16T12:57:51.566Z,11.75
2022-12-16T13:03:20.750Z,12.80
2022-12-16T13:09:03.383Z,14.00
2022-12-16T13:15:16.172Z,13.00
2022-12-16T13:20:56.622Z,12.00
2022-12-16T13:26:23.569Z,12.75
2022-12-16T13:31:48.671Z,12.00
2022-12-16T13:37:19.487Z,11.00
2022-12-16T13:43:09.964Z,13.50
2022-12-16T13:48:47.570Z,12.75
2022-12-16T13:54:12.145Z,13.00
2022-12-16T13:59:36.532Z,13.50
2022-12-16T14:05:07.841Z,12.75
2022-12-16T14:10:42.780Z,12.75
2022-12-16T14:16:20.073Z,12.00
2022-12-16T14:21:52.769Z,12.00
2022-12-16T14:27:14.314Z,12.25
2022-12-16T14:32:46.521Z,13.00
2022-12-16T14:38:07.887Z,12.75
2022-12-16T14:43:32.185Z,12.00
2022-12-16T14:48:54.743Z,11.25
2022-12-16T14:54:34.496Z,12.00
2022-12-16T14:59:54.909Z,11.00
2022-12-16T15:05:15.400Z,10.00
2022-12-16T15:10:40.277Z,11.25
2022-12-16T15:16:04.750Z,11.00
2022-12-16T15:21:26.626Z,11.25
2022-12-16T15:26:50.123Z,12.00
2022-12-16T15:32:10.970Z,11.75
2022-12-16T15:37:43.876Z,12.00
2022-12-16T15:43:10.824Z,10.25
2022-12-16T15:48:36.650Z,10.75
2022-12-16T15:53:57.880Z,11.00
2022-12-16T15:59:39.312Z,10.75
2022-12-16T16:05:00.005Z,11.00
2022-12-16T16:10:33.919Z,9.00
2022-12-16T16:15:55.656Z,10.75
2022-12-16T16:21:16.113Z,8.75
2022-12-16T16:26:39.822Z,11.00
2022-12-16T16:32:04.382Z,10.00
2022-12-16T16:37:32.789Z,10.00
2022-12-16T16:42:53.191Z,11.00
2022-12-16T16:48:24.035Z,10.25
2022-12-16T16:53:44.661Z,9.75
2022-12-16T16:59:05.346Z,8.75
2022-12-16T17:04:27.089Z,11.00
2022-12-16T17:09:47.591Z,10.00
2022-12-16T17:15:07.779Z,10.75
2022-12-16T17:20:32.788Z,9.75
2022-12-16T17:25:53.746Z,10.25
2022-12-16T17:31:17.638Z,10.50
2022-12-16T17:36:39.440Z,9.50
2022-12-16T17:41:59.518Z,8.00
2022-12-16T17:47:19.685Z,9.50
2022-12-16T17:52:41.495Z,9.50
2022-12-16T17:58:01.669Z,9.00
2022-12-16T18:03:22.580Z,10.00
2022-12-16T18:08:44.362Z,10.00
2022-12-16T18:14:04.614Z,10.00
2022-12-16T18:19:25.064Z,9.00
2022-12-16T18:24:48.632Z,9.25
2022-12-16T18:30:09.115Z,9.00
2022-12-16T18:35:29.249Z,8.50
2022-12-16T18:40:50.792Z,9.50
2022-12-16T18:46:11.858Z,8.75
2022-12-16T18:51:32.365Z,9.75
2022-12-16T18:56:54.492Z,10.00
2022-12-16T19:02:15.886Z,9.75
2022-12-16T19:07:36.470Z,9.00
2022-12-16T19:12:57.976Z,8.25
2022-12-16T19:18:18.193Z,10.00
2022-12-16T19:23:38.690Z,10.00
2022-12-16T19:29:00.421Z,10.00
2022-12-16T19:34:35.480Z,9.00
2022-12-16T19:39:55.802Z,9.75
2022-12-16T19:45:18.806Z,9.00
2022-12-16T19:50:39.297Z,9.00
2022-12-16T19:55:59.368Z,8.50
2022-12-16T20:01:27.836Z,9.50
2022-12-16T20:06:49.346Z,8.50
2022-12-16T20:12:10.792Z,11.25
2022-12-16T20:17:32.646Z,13.50
2022-12-16T20:22:53.219Z,13.80
2022-12-16T20:28:21.741Z,14.00
2022-12-16T20:33:46.679Z,13.80
2022-12-16T20:39:07.108Z,16.20
2022-12-16T20:44:27.664Z,14.00
2022-12-16T20:49:49.157Z,15.00
2022-12-16T20:55:09.666Z,15.00
2022-12-16T21:00:31.783Z,18.60
2022-12-16T21:05:54.108Z,16.60
2022-12-16T21:11:16.366Z,16.00
2022-12-16T21:16:36.537Z,17.60
2022-12-16T21:21:58.054Z,17.00
2022-12-16T21:27:18.750Z,17.20
2022-12-16T21:32:44.223Z,17.00
2022-12-16T21:38:05.478Z,17.80
2022-12-16T21:43:25.573Z,18.60
2022-12-16T21:48:46.033Z,18.00
2022-12-16T21:54:10.828Z,18.00
2022-12-16T21:59:30.968Z,18.80
2022-12-16T22:04:51.254Z,19.00
2022-12-16T22:10:13.504Z,17.00
2022-12-16T22:15:34.013Z,16.00
2022-12-16T22:20:54.428Z,16.80
2022-12-16T22:26:17.422Z,15.00
2022-12-16T22:31:37.518Z,16.80
2022-12-16T22:36:58.144Z,14.20
2022-12-16T22:42:19.770Z,16.00
2022-12-16T22:47:40.937Z,15.00
2022-12-16T22:53:01.413Z,15.60
2022-12-16T22:58:26.311Z,14.50
2022-12-16T23:03:46.653Z,14.00
2022-12-16T23:09:06.815Z,12.75
2022-12-16T23:14:27.741Z,14.25
2022-12-16T23:19:48.077Z,14.80
2022-12-16T23:25:08.225Z,13.00
2022-12-16T23:30:30.683Z,13.50
2022-12-16T23:35:51.007Z,15.00
2022-12-16T23:41:20.994Z,13.25
2022-12-16T23:46:42.552Z,15.20
2022-12-16T23:52:02.947Z,14.60
2022-12-16T23:57:23.369Z,13.40
